sensor_id;sensor_type;location;lat;lon;timestamp;P1;durP1;ratioP1;P2;durP2;ratioP2
6939;SDS011;3509;48.510;9.076;2022-07-23T00:00:19;12.38;;;11.18;;
6939;SDS011;3509;48.510;9.076;2022-07-23T00:02:45;12.45;;;11.32;;
6939;SDS011;3509;48.510;9.076;2022-07-23T00:05:11;15.07;;;10.98;;
6939;SDS011;3509;48.510;9.076;2022-07-23T00:07:37;11.77;;;10.38;;
6939;SDS011;3509;48.510;9.076;2022-07-23T00:10:03;11.35;;;9.85;;
6939;SDS011;3509;48.510;9.076;2022-07-23T00:12:29;12.25;;;11.00;;
6939;SDS011;3509;48.510;9.076;2022-07-23T00:14:55;12.90;;;11.57;;
6939;SDS011;3509;48.510;9.076;2022-07-23T00:17:20;13.45;;;12.15;;
6939;SDS011;3509;48.510;9.076;2022-07-23T00:19:46;16.83;;;12.88;;
6939;SDS011;3509;48.510;9.076;2022-07-23T00:22:12;15.18;;;13.52;;
6939;SDS011;3509;48.510;9.076;2022-07-23T00:24:38;14.35;;;12.88;;
6939;SDS011;3509;48.510;9.076;2022-07-23T00:27:03;14.07;;;12.68;;
6939;SDS011;3509;48.510;9.076;2022-07-23T00:29:29;14.48;;;13.02;;
6939;SDS011;3509;48.510;9.076;2022-07-23T00:31:54;15.05;;;13.65;;
6939;SDS011;3509;48.510;9.076;2022-07-23T00:34:20;16.00;;;14.23;;
6939;SDS011;3509;48.510;9.076;2022-07-23T00:36:46;14.75;;;13.48;;
6939;SDS011;3509;48.510;9.076;2022-07-23T00:39:11;15.68;;;14.18;;
6939;SDS011;3509;48.510;9.076;2022-07-23T00:41:37;16.08;;;14.07;;
6939;SDS011;3509;48.510;9.076;2022-07-23T00:44:22;15.73;;;14.25;;
6939;SDS011;3509;48.510;9.076;2022-07-23T00:46:53;15.85;;;14.32;;
6939;SDS011;3509;48.510;9.076;2022-07-23T00:49:21;16.55;;;14.85;;
6939;SDS011;3509;48.510;9.076;2022-07-23T00:51:48;14.88;;;13.38;;
6939;SDS011;3509;48.510;9.076;2022-07-23T00:54:16;14.60;;;13.10;;
6939;SDS011;3509;48.510;9.076;2022-07-23T00:56:43;11.25;;;10.25;;
6939;SDS011;3509;48.510;9.076;2022-07-23T00:59:09;12.68;;;11.38;;
6939;SDS011;3509;48.510;9.076;2022-07-23T01:01:35;11.50;;;10.40;;
6939;SDS011;3509;48.510;9.076;2022-07-23T01:04:01;11.77;;;10.60;;
6939;SDS011;3509;48.510;9.076;2022-07-23T01:06:27;12.95;;;11.40;;
6939;SDS011;3509;48.510;9.076;2022-07-23T01:08:54;12.73;;;11.50;;
6939;SDS011;3509;48.510;9.076;2022-07-23T01:11:20;12.90;;;11.55;;
6939;SDS011;3509;48.510;9.076;2022-07-23T01:13:48;12.52;;;11.32;;
6939;SDS011;3509;48.510;9.076;2022-07-23T01:16:14;12.10;;;10.95;;
6939;SDS011;3509;48.510;9.076;2022-07-23T01:18:39;11.23;;;10.23;;
6939;SDS011;3509;48.510;9.076;2022-07-23T01:21:05;12.48;;;10.65;;
6939;SDS011;3509;48.510;9.076;2022-07-23T01:23:31;11.43;;;10.32;;
6939;SDS011;3509;48.510;9.076;2022-07-23T01:25:56;14.05;;;11.38;;
6939;SDS011;3509;48.510;9.076;2022-07-23T01:28:22;12.00;;;10.90;;
6939;SDS011;3509;48.510;9.076;2022-07-23T01:30:48;14.25;;;11.27;;
6939;SDS011;3509;48.510;9.076;2022-07-23T01:33:14;12.30;;;10.82;;
6939;SDS011;3509;48.510;9.076;2022-07-23T01:35:40;12.23;;;10.82;;
6939;SDS011;3509;48.510;9.076;2022-07-23T01:38:06;13.48;;;12.05;;
6939;SDS011;3509;48.510;9.076;2022-07-23T01:40:31;12.32;;;11.27;;
6939;SDS011;3509;48.510;9.076;2022-07-23T01:42:57;13.10;;;11.93;;
6939;SDS011;3509;48.510;9.076;2022-07-23T01:45:23;13.38;;;12.07;;
6939;SDS011;3509;48.510;9.076;2022-07-23T01:47:49;13.45;;;11.65;;
6939;SDS011;3509;48.510;9.076;2022-07-23T01:50:14;13.07;;;11.73;;
6939;SDS011;3509;48.510;9.076;2022-07-23T01:52:40;12.95;;;11.75;;
6939;SDS011;3509;48.510;9.076;2022-07-23T01:55:08;12.38;;;11.27;;
6939;SDS011;3509;48.510;9.076;2022-07-23T01:57:33;13.45;;;12.20;;
6939;SDS011;3509;48.510;9.076;2022-07-23T01:59:59;13.82;;;12.52;;
6939;SDS011;3509;48.510;9.076;2022-07-23T02:02:25;13.63;;;12.43;;
6939;SDS011;3509;48.510;9.076;2022-07-23T02:04:50;14.82;;;13.05;;
6939;SDS011;3509;48.510;9.076;2022-07-23T02:07:16;14.68;;;13.38;;
6939;SDS011;3509;48.510;9.076;2022-07-23T02:09:42;13.52;;;12.32;;
6939;SDS011;3509;48.510;9.076;2022-07-23T02:12:08;15.50;;;13.50;;
6939;SDS011;3509;48.510;9.076;2022-07-23T02:14:33;14.80;;;13.40;;
6939;SDS011;3509;48.510;9.076;2022-07-23T02:16:59;15.27;;;13.57;;
6939;SDS011;3509;48.510;9.076;2022-07-23T02:19:25;14.68;;;12.23;;
6939;SDS011;3509;48.510;9.076;2022-07-23T02:21:50;12.85;;;11.55;;
6939;SDS011;3509;48.510;9.076;2022-07-23T02:24:16;12.18;;;10.98;;
6939;SDS011;3509;48.510;9.076;2022-07-23T02:26:42;11.65;;;10.55;;
6939;SDS011;3509;48.510;9.076;2022-07-23T02:29:08;10.93;;;9.93;;
6939;SDS011;3509;48.510;9.076;2022-07-23T02:31:34;9.90;;;9.10;;
6939;SDS011;3509;48.510;9.076;2022-07-23T02:34:00;10.93;;;9.82;;
6939;SDS011;3509;48.510;9.076;2022-07-23T02:36:27;11.07;;;9.90;;
6939;SDS011;3509;48.510;9.076;2022-07-23T02:38:53;13.05;;;10.60;;
6939;SDS011;3509;48.510;9.076;2022-07-23T02:41:18;12.02;;;10.77;;
6939;SDS011;3509;48.510;9.076;2022-07-23T02:43:44;11.35;;;10.30;;
6939;SDS011;3509;48.510;9.076;2022-07-23T02:46:10;12.13;;;10.77;;
6939;SDS011;3509;48.510;9.076;2022-07-23T02:48:35;11.00;;;9.95;;
6939;SDS011;3509;48.510;9.076;2022-07-23T02:51:01;12.25;;;10.93;;
6939;SDS011;3509;48.510;9.076;2022-07-23T02:53:27;12.07;;;10.88;;
6939;SDS011;3509;48.510;9.076;2022-07-23T02:55:52;11.65;;;10.55;;
6939;SDS011;3509;48.510;9.076;2022-07-23T02:58:18;13.48;;;11.38;;
6939;SDS011;3509;48.510;9.076;2022-07-23T03:00:44;13.13;;;11.73;;
6939;SDS011;3509;48.510;9.076;2022-07-23T03:03:09;13.05;;;11.70;;
6939;SDS011;3509;48.510;9.076;2022-07-23T03:05:35;11.73;;;10.73;;
6939;SDS011;3509;48.510;9.076;2022-07-23T03:08:01;12.25;;;11.05;;
6939;SDS011;3509;48.510;9.076;2022-07-23T03:10:26;12.50;;;11.20;;
6939;SDS011;3509;48.510;9.076;2022-07-23T03:12:52;12.25;;;11.07;;
6939;SDS011;3509;48.510;9.076;2022-07-23T03:15:17;11.98;;;10.55;;
6939;SDS011;3509;48.510;9.076;2022-07-23T03:17:43;11.60;;;10.60;;
6939;SDS011;3509;48.510;9.076;2022-07-23T03:20:09;11.55;;;10.55;;
6939;SDS011;3509;48.510;9.076;2022-07-23T03:22:35;11.05;;;10.00;;
6939;SDS011;3509;48.510;9.076;2022-07-23T03:25:00;10.55;;;9.55;;
6939;SDS011;3509;48.510;9.076;2022-07-23T03:27:29;10.38;;;9.27;;
6939;SDS011;3509;48.510;9.076;2022-07-23T03:29:56;13.00;;;9.85;;
6939;SDS011;3509;48.510;9.076;2022-07-23T03:32:23;10.55;;;9.55;;
6939;SDS011;3509;48.510;9.076;2022-07-23T03:34:49;11.60;;;9.95;;
6939;SDS011;3509;48.510;9.076;2022-07-23T03:37:16;11.13;;;9.98;;
6939;SDS011;3509;48.510;9.076;2022-07-23T03:39:42;10.95;;;9.80;;
6939;SDS011;3509;48.510;9.076;2022-07-23T03:42:07;12.82;;;10.35;;
6939;SDS011;3509;48.510;9.076;2022-07-23T03:44:33;11.48;;;9.80;;
6939;SDS011;3509;48.510;9.076;2022-07-23T03:46:59;11.23;;;10.20;;
6939;SDS011;3509;48.510;9.076;2022-07-23T03:49:25;16.67;;;10.38;;
6939;SDS011;3509;48.510;9.076;2022-07-23T03:51:50;9.85;;;8.95;;
6939;SDS011;3509;48.510;9.076;2022-07-23T03:54:16;8.05;;;7.35;;
6939;SDS011;3509;48.510;9.076;2022-07-23T03:56:42;10.38;;;9.48;;
6939;SDS011;3509;48.510;9.076;2022-07-23T03:59:08;11.77;;;9.23;;
6939;SDS011;3509;48.510;9.076;2022-07-23T04:01:34;11.00;;;10.00;;
6939;SDS011;3509;48.510;9.076;2022-07-23T04:04:00;10.68;;;9.55;;
6939;SDS011;3509;48.510;9.076;2022-07-23T04:06:26;12.00;;;10.00;;
6939;SDS011;3509;48.510;9.076;2022-07-23T04:08:51;17.75;;;10.40;;
6939;SDS011;3509;48.510;9.076;2022-07-23T04:11:17;10.77;;;9.77;;
6939;SDS011;3509;48.510;9.076;2022-07-23T04:13:43;11.32;;;10.32;;
6939;SDS011;3509;48.510;9.076;2022-07-23T04:16:08;12.98;;;10.45;;
6939;SDS011;3509;48.510;9.076;2022-07-23T04:18:34;13.32;;;10.15;;
6939;SDS011;3509;48.510;9.076;2022-07-23T04:20:59;10.95;;;9.95;;
6939;SDS011;3509;48.510;9.076;2022-07-23T04:23:25;11.18;;;10.07;;
6939;SDS011;3509;48.510;9.076;2022-07-23T04:25:51;11.30;;;10.15;;
6939;SDS011;3509;48.510;9.076;2022-07-23T04:28:16;13.10;;;10.05;;
6939;SDS011;3509;48.510;9.076;2022-07-23T04:30:42;11.68;;;10.50;;
6939;SDS011;3509;48.510;9.076;2022-07-23T04:33:08;11.10;;;10.00;;
6939;SDS011;3509;48.510;9.076;2022-07-23T04:35:34;11.23;;;10.15;;
6939;SDS011;3509;48.510;9.076;2022-07-23T04:37:59;11.38;;;10.18;;
6939;SDS011;3509;48.510;9.076;2022-07-23T04:40:25;11.18;;;9.85;;
6939;SDS011;3509;48.510;9.076;2022-07-23T04:42:51;11.18;;;10.10;;
6939;SDS011;3509;48.510;9.076;2022-07-23T04:45:17;11.23;;;10.00;;
6939;SDS011;3509;48.510;9.076;2022-07-23T04:47:43;9.93;;;8.93;;
6939;SDS011;3509;48.510;9.076;2022-07-23T04:50:08;10.00;;;9.00;;
6939;SDS011;3509;48.510;9.076;2022-07-23T04:52:34;11.10;;;9.00;;
6939;SDS011;3509;48.510;9.076;2022-07-23T04:55:00;10.68;;;8.73;;
6939;SDS011;3509;48.510;9.076;2022-07-23T04:57:25;9.27;;;8.32;;
6939;SDS011;3509;48.510;9.076;2022-07-23T04:59:51;8.90;;;7.90;;
6939;SDS011;3509;48.510;9.076;2022-07-23T05:02:17;8.82;;;7.85;;
6939;SDS011;3509;48.510;9.076;2022-07-23T05:04:42;8.68;;;7.88;;
6939;SDS011;3509;48.510;9.076;2022-07-23T05:07:08;9.75;;;7.63;;
6939;SDS011;3509;48.510;9.076;2022-07-23T05:09:33;8.38;;;7.57;;
6939;SDS011;3509;48.510;9.076;2022-07-23T05:11:59;8.98;;;8.07;;
6939;SDS011;3509;48.510;9.076;2022-07-23T05:14:25;11.45;;;8.40;;
6939;SDS011;3509;48.510;9.076;2022-07-23T05:16:51;8.32;;;7.53;;
6939;SDS011;3509;48.510;9.076;2022-07-23T05:19:17;8.80;;;7.97;;
6939;SDS011;3509;48.510;9.076;2022-07-23T05:21:42;9.02;;;6.97;;
6939;SDS011;3509;48.510;9.076;2022-07-23T05:24:08;9.27;;;7.78;;
6939;SDS011;3509;48.510;9.076;2022-07-23T05:26:34;8.85;;;8.02;;
6939;SDS011;3509;48.510;9.076;2022-07-23T05:28:59;8.88;;;7.93;;
6939;SDS011;3509;48.510;9.076;2022-07-23T05:31:25;8.23;;;7.35;;
6939;SDS011;3509;48.510;9.076;2022-07-23T05:33:51;8.43;;;7.63;;
6939;SDS011;3509;48.510;9.076;2022-07-23T05:36:16;9.55;;;7.50;;
6939;SDS011;3509;48.510;9.076;2022-07-23T05:38:42;9.65;;;7.45;;
6939;SDS011;3509;48.510;9.076;2022-07-23T05:41:07;11.07;;;7.05;;
6939;SDS011;3509;48.510;9.076;2022-07-23T05:43:33;11.75;;;7.40;;
6939;SDS011;3509;48.510;9.076;2022-07-23T05:45:59;9.75;;;6.03;;
6939;SDS011;3509;48.510;9.076;2022-07-23T05:48:25;6.22;;;5.65;;
6939;SDS011;3509;48.510;9.076;2022-07-23T05:50:50;6.53;;;5.40;;
6939;SDS011;3509;48.510;9.076;2022-07-23T05:53:16;6.65;;;5.25;;
6939;SDS011;3509;48.510;9.076;2022-07-23T05:55:42;5.68;;;4.90;;
6939;SDS011;3509;48.510;9.076;2022-07-23T05:58:08;6.25;;;5.15;;
6939;SDS011;3509;48.510;9.076;2022-07-23T06:00:34;5.28;;;4.78;;
6939;SDS011;3509;48.510;9.076;2022-07-23T06:02:59;7.90;;;6.25;;
6939;SDS011;3509;48.510;9.076;2022-07-23T06:05:25;7.45;;;5.10;;
6939;SDS011;3509;48.510;9.076;2022-07-23T06:07:51;6.43;;;5.75;;
6939;SDS011;3509;48.510;9.076;2022-07-23T06:10:18;7.22;;;5.60;;
6939;SDS011;3509;48.510;9.076;2022-07-23T06:12:45;8.90;;;5.88;;
6939;SDS011;3509;48.510;9.076;2022-07-23T06:15:11;6.68;;;5.90;;
6939;SDS011;3509;48.510;9.076;2022-07-23T06:17:37;8.98;;;5.80;;
6939;SDS011;3509;48.510;9.076;2022-07-23T06:20:06;5.63;;;5.07;;
6939;SDS011;3509;48.510;9.076;2022-07-23T06:22:33;8.80;;;5.90;;
6939;SDS011;3509;48.510;9.076;2022-07-23T06:24:59;10.05;;;6.22;;
6939;SDS011;3509;48.510;9.076;2022-07-23T06:27:25;8.60;;;6.20;;
6939;SDS011;3509;48.510;9.076;2022-07-23T06:29:51;6.70;;;5.53;;
6939;SDS011;3509;48.510;9.076;2022-07-23T06:32:16;78.00;;;13.82;;
6939;SDS011;3509;48.510;9.076;2022-07-23T06:34:42;22.80;;;7.40;;
6939;SDS011;3509;48.510;9.076;2022-07-23T06:37:07;9.82;;;6.15;;
6939;SDS011;3509;48.510;9.076;2022-07-23T06:39:33;10.30;;;6.30;;
6939;SDS011;3509;48.510;9.076;2022-07-23T06:41:59;35.35;;;9.50;;
6939;SDS011;3509;48.510;9.076;2022-07-23T06:44:26;49.38;;;10.55;;
6939;SDS011;3509;48.510;9.076;2022-07-23T06:46:52;17.00;;;7.03;;
6939;SDS011;3509;48.510;9.076;2022-07-23T06:49:17;16.98;;;6.53;;
6939;SDS011;3509;48.510;9.076;2022-07-23T06:51:43;13.98;;;6.63;;
6939;SDS011;3509;48.510;9.076;2022-07-23T06:54:09;12.52;;;6.43;;
6939;SDS011;3509;48.510;9.076;2022-07-23T06:56:35;11.38;;;6.40;;
6939;SDS011;3509;48.510;9.076;2022-07-23T06:59:00;6.88;;;6.18;;
6939;SDS011;3509;48.510;9.076;2022-07-23T07:01:26;7.03;;;5.78;;
6939;SDS011;3509;48.510;9.076;2022-07-23T07:03:52;32.40;;;8.82;;
6939;SDS011;3509;48.510;9.076;2022-07-23T07:06:17;40.72;;;9.57;;
6939;SDS011;3509;48.510;9.076;2022-07-23T07:08:43;16.60;;;7.15;;
6939;SDS011;3509;48.510;9.076;2022-07-23T07:11:09;17.92;;;7.47;;
6939;SDS011;3509;48.510;9.076;2022-07-23T07:13:35;7.75;;;6.13;;
6939;SDS011;3509;48.510;9.076;2022-07-23T07:16:02;6.43;;;5.43;;
6939;SDS011;3509;48.510;9.076;2022-07-23T07:18:28;7.05;;;5.93;;
6939;SDS011;3509;48.510;9.076;2022-07-23T07:20:54;6.72;;;6.03;;
6939;SDS011;3509;48.510;9.076;2022-07-23T07:23:19;6.57;;;5.95;;
6939;SDS011;3509;48.510;9.076;2022-07-23T07:25:45;6.57;;;5.97;;
6939;SDS011;3509;48.510;9.076;2022-07-23T07:28:11;6.88;;;5.93;;
6939;SDS011;3509;48.510;9.076;2022-07-23T07:30:37;6.30;;;5.70;;
6939;SDS011;3509;48.510;9.076;2022-07-23T07:33:03;7.88;;;5.78;;
6939;SDS011;3509;48.510;9.076;2022-07-23T07:35:29;7.50;;;6.00;;
6939;SDS011;3509;48.510;9.076;2022-07-23T07:37:56;8.05;;;6.10;;
6939;SDS011;3509;48.510;9.076;2022-07-23T07:40:22;9.02;;;5.68;;
6939;SDS011;3509;48.510;9.076;2022-07-23T07:42:48;6.35;;;5.80;;
6939;SDS011;3509;48.510;9.076;2022-07-23T07:45:15;5.97;;;5.30;;
6939;SDS011;3509;48.510;9.076;2022-07-23T07:47:41;5.95;;;5.35;;
6939;SDS011;3509;48.510;9.076;2022-07-23T07:50:07;6.80;;;6.20;;
6939;SDS011;3509;48.510;9.076;2022-07-23T07:52:33;7.57;;;5.90;;
6939;SDS011;3509;48.510;9.076;2022-07-23T07:55:01;6.60;;;6.00;;
6939;SDS011;3509;48.510;9.076;2022-07-23T07:57:28;6.35;;;5.72;;
6939;SDS011;3509;48.510;9.076;2022-07-23T07:59:54;6.70;;;6.10;;
6939;SDS011;3509;48.510;9.076;2022-07-23T08:02:19;8.75;;;6.10;;
6939;SDS011;3509;48.510;9.076;2022-07-23T08:04:45;7.70;;;6.07;;
6939;SDS011;3509;48.510;9.076;2022-07-23T08:07:11;9.15;;;6.35;;
6939;SDS011;3509;48.510;9.076;2022-07-23T08:09:36;37.63;;;8.77;;
6939;SDS011;3509;48.510;9.076;2022-07-23T08:12:02;21.52;;;7.47;;
6939;SDS011;3509;48.510;9.076;2022-07-23T08:14:28;11.63;;;6.10;;
6939;SDS011;3509;48.510;9.076;2022-07-23T08:16:53;16.73;;;7.03;;
6939;SDS011;3509;48.510;9.076;2022-07-23T08:19:19;8.30;;;6.50;;
6939;SDS011;3509;48.510;9.076;2022-07-23T08:21:45;7.80;;;6.03;;
6939;SDS011;3509;48.510;9.076;2022-07-23T08:24:10;10.95;;;5.32;;
6939;SDS011;3509;48.510;9.076;2022-07-23T08:26:36;8.75;;;6.32;;
6939;SDS011;3509;48.510;9.076;2022-07-23T08:29:01;8.40;;;5.93;;
6939;SDS011;3509;48.510;9.076;2022-07-23T08:31:27;15.38;;;7.05;;
6939;SDS011;3509;48.510;9.076;2022-07-23T08:33:53;8.50;;;6.10;;
6939;SDS011;3509;48.510;9.076;2022-07-23T08:36:20;8.02;;;6.15;;
6939;SDS011;3509;48.510;9.076;2022-07-23T08:38:45;7.43;;;5.72;;
6939;SDS011;3509;48.510;9.076;2022-07-23T08:41:11;10.25;;;6.43;;
6939;SDS011;3509;48.510;9.076;2022-07-23T08:43:37;7.40;;;6.03;;
6939;SDS011;3509;48.510;9.076;2022-07-23T08:46:03;19.95;;;7.28;;
6939;SDS011;3509;48.510;9.076;2022-07-23T08:48:33;20.45;;;7.40;;
6939;SDS011;3509;48.510;9.076;2022-07-23T08:51:04;12.23;;;6.80;;
6939;SDS011;3509;48.510;9.076;2022-07-23T08:53:31;16.83;;;7.40;;
6939;SDS011;3509;48.510;9.076;2022-07-23T08:55:58;8.40;;;5.60;;
6939;SDS011;3509;48.510;9.076;2022-07-23T08:58:26;5.82;;;5.35;;
6939;SDS011;3509;48.510;9.076;2022-07-23T09:00:52;7.43;;;5.63;;
6939;SDS011;3509;48.510;9.076;2022-07-23T09:03:22;7.35;;;5.55;;
6939;SDS011;3509;48.510;9.076;2022-07-23T09:05:50;6.85;;;6.20;;
6939;SDS011;3509;48.510;9.076;2022-07-23T09:08:20;6.72;;;5.78;;
6939;SDS011;3509;48.510;9.076;2022-07-23T09:13:49;6.00;;;5.25;;
6939;SDS011;3509;48.510;9.076;2022-07-23T09:18:47;7.10;;;5.82;;
6939;SDS011;3509;48.510;9.076;2022-07-23T09:21:26;6.68;;;5.28;;
6939;SDS011;3509;48.510;9.076;2022-07-23T09:24:03;6.18;;;5.57;;
6939;SDS011;3509;48.510;9.076;2022-07-23T09:31:42;7.35;;;5.95;;
6939;SDS011;3509;48.510;9.076;2022-07-23T09:34:12;6.32;;;5.72;;
6939;SDS011;3509;48.510;9.076;2022-07-23T09:36:43;6.40;;;5.47;;
6939;SDS011;3509;48.510;9.076;2022-07-23T09:39:09;6.65;;;6.05;;
6939;SDS011;3509;48.510;9.076;2022-07-23T09:41:37;6.55;;;6.00;;
6939;SDS011;3509;48.510;9.076;2022-07-23T09:44:12;7.10;;;5.63;;
6939;SDS011;3509;48.510;9.076;2022-07-23T09:46:40;6.28;;;5.78;;
6939;SDS011;3509;48.510;9.076;2022-07-23T09:49:12;6.40;;;5.80;;
6939;SDS011;3509;48.510;9.076;2022-07-23T09:51:49;6.65;;;6.00;;
6939;SDS011;3509;48.510;9.076;2022-07-23T09:54:36;6.07;;;5.47;;
6939;SDS011;3509;48.510;9.076;2022-07-23T09:57:07;6.63;;;5.95;;
6939;SDS011;3509;48.510;9.076;2022-07-23T09:59:39;7.97;;;6.40;;
6939;SDS011;3509;48.510;9.076;2022-07-23T10:02:06;6.10;;;5.38;;
6939;SDS011;3509;48.510;9.076;2022-07-23T10:04:32;6.43;;;5.85;;
6939;SDS011;3509;48.510;9.076;2022-07-23T10:07:00;6.35;;;5.75;;
6939;SDS011;3509;48.510;9.076;2022-07-23T10:09:32;8.13;;;6.45;;
6939;SDS011;3509;48.510;9.076;2022-07-23T10:12:00;6.80;;;6.03;;
6939;SDS011;3509;48.510;9.076;2022-07-23T10:14:34;9.98;;;6.45;;
6939;SDS011;3509;48.510;9.076;2022-07-23T10:17:03;6.72;;;6.13;;
6939;SDS011;3509;48.510;9.076;2022-07-23T10:19:30;6.97;;;6.38;;
6939;SDS011;3509;48.510;9.076;2022-07-23T10:21:58;6.93;;;6.32;;
6939;SDS011;3509;48.510;9.076;2022-07-23T10:24:50;7.35;;;6.57;;
6939;SDS011;3509;48.510;9.076;2022-07-23T10:30:15;7.35;;;6.28;;
6939;SDS011;3509;48.510;9.076;2022-07-23T10:38:39;7.60;;;6.88;;
6939;SDS011;3509;48.510;9.076;2022-07-23T10:41:19;10.95;;;7.50;;
6939;SDS011;3509;48.510;9.076;2022-07-23T10:44:15;7.63;;;6.72;;
6939;SDS011;3509;48.510;9.076;2022-07-23T10:46:59;7.03;;;6.43;;
6939;SDS011;3509;48.510;9.076;2022-07-23T10:49:38;7.20;;;6.50;;
6939;SDS011;3509;48.510;9.076;2022-07-23T10:52:26;7.55;;;6.60;;
6939;SDS011;3509;48.510;9.076;2022-07-23T10:54:56;8.25;;;6.45;;
6939;SDS011;3509;48.510;9.076;2022-07-23T10:57:49;6.97;;;6.38;;
6939;SDS011;3509;48.510;9.076;2022-07-23T11:00:22;6.72;;;6.13;;
6939;SDS011;3509;48.510;9.076;2022-07-23T11:02:50;7.40;;;6.70;;
6939;SDS011;3509;48.510;9.076;2022-07-23T11:05:18;8.88;;;6.32;;
6939;SDS011;3509;48.510;9.076;2022-07-23T11:10:36;8.98;;;6.18;;
6939;SDS011;3509;48.510;9.076;2022-07-23T11:16:11;6.55;;;6.00;;
6939;SDS011;3509;48.510;9.076;2022-07-23T11:32:17;9.77;;;6.38;;
6939;SDS011;3509;48.510;9.076;2022-07-23T11:34:48;7.38;;;5.88;;
6939;SDS011;3509;48.510;9.076;2022-07-23T11:40:00;7.55;;;6.85;;
6939;SDS011;3509;48.510;9.076;2022-07-23T11:42:26;8.35;;;6.32;;
6939;SDS011;3509;48.510;9.076;2022-07-23T11:44:52;6.47;;;5.75;;
6939;SDS011;3509;48.510;9.076;2022-07-23T11:47:25;7.63;;;6.55;;
6939;SDS011;3509;48.510;9.076;2022-07-23T11:49:52;7.18;;;6.53;;
6939;SDS011;3509;48.510;9.076;2022-07-23T11:52:22;6.20;;;5.70;;
6939;SDS011;3509;48.510;9.076;2022-07-23T11:57:21;6.63;;;6.00;;
6939;SDS011;3509;48.510;9.076;2022-07-23T12:00:07;6.35;;;5.85;;
6939;SDS011;3509;48.510;9.076;2022-07-23T12:02:44;6.57;;;5.82;;
6939;SDS011;3509;48.510;9.076;2022-07-23T12:05:16;7.28;;;6.57;;
6939;SDS011;3509;48.510;9.076;2022-07-23T12:07:47;6.53;;;5.68;;
6939;SDS011;3509;48.510;9.076;2022-07-23T12:12:47;6.68;;;5.95;;
6939;SDS011;3509;48.510;9.076;2022-07-23T12:15:24;6.35;;;5.80;;
6939;SDS011;3509;48.510;9.076;2022-07-23T12:17:52;9.43;;;6.20;;
6939;SDS011;3509;48.510;9.076;2022-07-23T12:20:23;6.53;;;5.70;;
6939;SDS011;3509;48.510;9.076;2022-07-23T12:22:51;6.72;;;6.10;;
6939;SDS011;3509;48.510;9.076;2022-07-23T12:25:21;9.35;;;6.38;;
6939;SDS011;3509;48.510;9.076;2022-07-23T12:27:58;6.70;;;6.10;;
6939;SDS011;3509;48.510;9.076;2022-07-23T12:30:26;6.65;;;6.05;;
6939;SDS011;3509;48.510;9.076;2022-07-23T12:32:54;8.85;;;6.05;;
6939;SDS011;3509;48.510;9.076;2022-07-23T12:35:21;6.75;;;5.90;;
6939;SDS011;3509;48.510;9.076;2022-07-23T12:37:49;6.50;;;5.85;;
6939;SDS011;3509;48.510;9.076;2022-07-23T12:43:12;7.35;;;6.68;;
6939;SDS011;3509;48.510;9.076;2022-07-23T12:53:38;8.35;;;6.35;;
6939;SDS011;3509;48.510;9.076;2022-07-23T12:56:09;10.80;;;6.68;;
6939;SDS011;3509;48.510;9.076;2022-07-23T13:01:08;6.93;;;6.32;;
6939;SDS011;3509;48.510;9.076;2022-07-23T13:03:41;6.97;;;6.05;;
6939;SDS011;3509;48.510;9.076;2022-07-23T13:06:10;7.43;;;6.70;;
6939;SDS011;3509;48.510;9.076;2022-07-23T13:08:37;6.78;;;6.18;;
6939;SDS011;3509;48.510;9.076;2022-07-23T13:11:05;6.72;;;6.13;;
6939;SDS011;3509;48.510;9.076;2022-07-23T13:13:32;7.20;;;6.53;;
6939;SDS011;3509;48.510;9.076;2022-07-23T13:15:59;8.15;;;6.10;;
6939;SDS011;3509;48.510;9.076;2022-07-23T13:18:26;6.60;;;5.95;;
6939;SDS011;3509;48.510;9.076;2022-07-23T13:20:52;6.57;;;5.97;;
6939;SDS011;3509;48.510;9.076;2022-07-23T13:23:18;6.90;;;5.68;;
6939;SDS011;3509;48.510;9.076;2022-07-23T13:25:44;6.78;;;5.78;;
6939;SDS011;3509;48.510;9.076;2022-07-23T13:28:11;6.32;;;5.65;;
6939;SDS011;3509;48.510;9.076;2022-07-23T13:30:37;6.10;;;5.60;;
6939;SDS011;3509;48.510;9.076;2022-07-23T13:33:03;6.80;;;5.95;;
6939;SDS011;3509;48.510;9.076;2022-07-23T13:35:30;7.13;;;5.78;;
6939;SDS011;3509;48.510;9.076;2022-07-23T13:37:56;8.25;;;6.03;;
6939;SDS011;3509;48.510;9.076;2022-07-23T13:40:21;6.40;;;5.90;;
6939;SDS011;3509;48.510;9.076;2022-07-23T13:42:47;6.45;;;5.80;;
6939;SDS011;3509;48.510;9.076;2022-07-23T13:45:13;6.28;;;5.68;;
6939;SDS011;3509;48.510;9.076;2022-07-23T13:47:39;5.90;;;5.35;;
6939;SDS011;3509;48.510;9.076;2022-07-23T13:50:05;5.75;;;5.25;;
6939;SDS011;3509;48.510;9.076;2022-07-23T13:52:31;6.80;;;5.70;;
6939;SDS011;3509;48.510;9.076;2022-07-23T13:54:59;8.25;;;6.20;;
6939;SDS011;3509;48.510;9.076;2022-07-23T13:57:27;6.60;;;6.00;;
6939;SDS011;3509;48.510;9.076;2022-07-23T13:59:52;9.60;;;6.32;;
6939;SDS011;3509;48.510;9.076;2022-07-23T14:02:18;8.07;;;6.90;;
6939;SDS011;3509;48.510;9.076;2022-07-23T14:04:44;6.90;;;6.00;;
6939;SDS011;3509;48.510;9.076;2022-07-23T14:07:10;9.32;;;6.70;;
6939;SDS011;3509;48.510;9.076;2022-07-23T14:09:35;10.95;;;6.25;;
6939;SDS011;3509;48.510;9.076;2022-07-23T14:12:02;7.40;;;6.28;;
6939;SDS011;3509;48.510;9.076;2022-07-23T14:14:28;7.05;;;6.32;;
6939;SDS011;3509;48.510;9.076;2022-07-23T14:16:54;7.90;;;6.32;;
6939;SDS011;3509;48.510;9.076;2022-07-23T14:19:21;7.78;;;7.07;;
6939;SDS011;3509;48.510;9.076;2022-07-23T14:21:46;8.20;;;6.35;;
6939;SDS011;3509;48.510;9.076;2022-07-23T14:24:15;7.57;;;6.40;;
6939;SDS011;3509;48.510;9.076;2022-07-23T14:26:41;7.13;;;6.43;;
6939;SDS011;3509;48.510;9.076;2022-07-23T14:29:07;7.07;;;6.47;;
6939;SDS011;3509;48.510;9.076;2022-07-23T14:31:33;8.18;;;5.97;;
6939;SDS011;3509;48.510;9.076;2022-07-23T14:33:59;7.68;;;6.00;;
6939;SDS011;3509;48.510;9.076;2022-07-23T14:36:25;7.30;;;6.60;;
6939;SDS011;3509;48.510;9.076;2022-07-23T14:38:51;8.02;;;6.25;;
6939;SDS011;3509;48.510;9.076;2022-07-23T14:41:16;7.40;;;6.70;;
6939;SDS011;3509;48.510;9.076;2022-07-23T14:43:43;7.55;;;6.70;;
6939;SDS011;3509;48.510;9.076;2022-07-23T14:46:09;6.70;;;6.05;;
6939;SDS011;3509;48.510;9.076;2022-07-23T14:48:36;6.75;;;6.15;;
6939;SDS011;3509;48.510;9.076;2022-07-23T14:51:02;7.63;;;6.28;;
6939;SDS011;3509;48.510;9.076;2022-07-23T14:53:28;7.43;;;6.28;;
6939;SDS011;3509;48.510;9.076;2022-07-23T14:55:54;7.03;;;6.38;;
6939;SDS011;3509;48.510;9.076;2022-07-23T14:58:21;6.70;;;6.05;;
6939;SDS011;3509;48.510;9.076;2022-07-23T15:00:50;6.75;;;5.95;;
6939;SDS011;3509;48.510;9.076;2022-07-23T15:03:16;7.63;;;6.82;;
6939;SDS011;3509;48.510;9.076;2022-07-23T15:05:42;8.15;;;6.20;;
6939;SDS011;3509;48.510;9.076;2022-07-23T15:08:08;7.10;;;6.25;;
6939;SDS011;3509;48.510;9.076;2022-07-23T15:10:34;7.90;;;6.53;;
6939;SDS011;3509;48.510;9.076;2022-07-23T15:13:00;7.05;;;6.35;;
6939;SDS011;3509;48.510;9.076;2022-07-23T15:15:26;7.13;;;6.53;;
6939;SDS011;3509;48.510;9.076;2022-07-23T15:17:51;7.63;;;6.80;;
6939;SDS011;3509;48.510;9.076;2022-07-23T15:20:17;7.82;;;5.93;;
6939;SDS011;3509;48.510;9.076;2022-07-23T15:22:46;7.13;;;6.43;;
6939;SDS011;3509;48.510;9.076;2022-07-23T15:25:12;7.00;;;6.32;;
6939;SDS011;3509;48.510;9.076;2022-07-23T15:27:38;6.78;;;6.18;;
6939;SDS011;3509;48.510;9.076;2022-07-23T15:30:05;8.70;;;6.22;;
6939;SDS011;3509;48.510;9.076;2022-07-23T15:32:31;7.43;;;6.72;;
6939;SDS011;3509;48.510;9.076;2022-07-23T15:34:57;6.65;;;6.07;;
6939;SDS011;3509;48.510;9.076;2022-07-23T15:37:23;6.93;;;6.32;;
6939;SDS011;3509;48.510;9.076;2022-07-23T15:39:48;8.10;;;6.55;;
6939;SDS011;3509;48.510;9.076;2022-07-23T15:42:14;7.20;;;6.50;;
6939;SDS011;3509;48.510;9.076;2022-07-23T15:44:41;11.10;;;6.57;;
6939;SDS011;3509;48.510;9.076;2022-07-23T15:47:10;7.55;;;6.85;;
6939;SDS011;3509;48.510;9.076;2022-07-23T15:49:37;7.10;;;6.47;;
6939;SDS011;3509;48.510;9.076;2022-07-23T15:52:03;7.25;;;6.65;;
6939;SDS011;3509;48.510;9.076;2022-07-23T15:54:29;7.38;;;6.68;;
6939;SDS011;3509;48.510;9.076;2022-07-23T15:56:55;8.00;;;7.35;;
6939;SDS011;3509;48.510;9.076;2022-07-23T15:59:20;8.25;;;7.45;;
6939;SDS011;3509;48.510;9.076;2022-07-23T16:01:46;7.35;;;6.75;;
6939;SDS011;3509;48.510;9.076;2022-07-23T16:04:12;9.52;;;7.43;;